createdAt,value
2022-10-26T00:00:25.828Z,100.00
2022-10-26T00:02:54.896Z,100.00
2022-10-26T00:05:24.032Z,100.00
2022-10-26T00:07:51.644Z,100.00
2022-10-26T00:10:21.671Z,100.00
2022-10-26T00:12:51.715Z,100.00
2022-10-26T00:15:19.595Z,100.00
2022-10-26T00:17:48.451Z,100.00
2022-10-26T00:20:16.375Z,100.00
2022-10-26T00:22:45.264Z,100.00
2022-10-26T00:25:12.780Z,100.00
2022-10-26T00:27:40.344Z,100.00
2022-10-26T00:30:08.950Z,100.00
2022-10-26T00:32:36.538Z,100.00
2022-10-26T00:35:11.855Z,100.00
2022-10-26T00:37:55.404Z,100.00
2022-10-26T00:40:22.940Z,100.00
2022-10-26T00:42:50.843Z,100.00
2022-10-26T00:45:22.185Z,100.00
2022-10-26T00:47:53.904Z,100.00
2022-10-26T00:50:26.067Z,100.00
2022-10-26T00:52:56.467Z,100.00
2022-10-26T00:55:27.808Z,100.00
2022-10-26T00:57:55.885Z,100.00
2022-10-26T01:00:23.636Z,100.00
2022-10-26T01:02:53.672Z,100.00
2022-10-26T01:05:21.685Z,100.00
2022-10-26T01:07:49.956Z,100.00
2022-10-26T01:10:19.189Z,100.00
2022-10-26T01:12:47.077Z,100.00
2022-10-26T01:15:14.967Z,100.00
2022-10-26T01:17:57.251Z,100.00
2022-10-26T01:20:55.843Z,100.00
2022-10-26T01:23:33.020Z,100.00
2022-10-26T01:26:25.721Z,100.00
2022-10-26T01:29:22.101Z,100.00
2022-10-26T01:31:57.880Z,100.00
2022-10-26T01:34:31.991Z,100.00
2022-10-26T01:37:06.484Z,100.00
2022-10-26T01:39:40.620Z,100.00
2022-10-26T01:42:11.289Z,100.00
2022-10-26T01:44:43.324Z,100.00
2022-10-26T01:47:15.670Z,100.00
2022-10-26T01:49:48.047Z,100.00
2022-10-26T01:52:15.579Z,100.00
2022-10-26T01:54:43.092Z,100.00
2022-10-26T01:57:13.825Z,100.00
2022-10-26T02:00:05.474Z,100.00
2022-10-26T02:02:46.204Z,100.00
2022-10-26T02:05:51.707Z,100.00
2022-10-26T02:08:40.527Z,100.00
2022-10-26T02:11:20.415Z,100.00
2022-10-26T02:13:53.517Z,100.00
2022-10-26T02:16:25.956Z,100.00
2022-10-26T02:19:03.586Z,100.00
2022-10-26T02:21:38.164Z,100.00
2022-10-26T02:24:09.508Z,100.00
2022-10-26T02:26:38.253Z,100.00
2022-10-26T02:29:10.594Z,100.00
2022-10-26T02:31:39.524Z,100.00
2022-10-26T02:34:14.327Z,100.00
2022-10-26T02:36:45.825Z,100.00
2022-10-26T02:39:17.381Z,100.00
2022-10-26T02:41:46.808Z,100.00
2022-10-26T02:44:17.813Z,100.00
2022-10-26T02:46:45.922Z,100.00
2022-10-26T02:49:14.912Z,100.00
2022-10-26T02:54:28.139Z,100.00
2022-10-26T02:57:00.745Z,100.00
2022-10-26T02:59:31.599Z,100.00
2022-10-26T03:01:59.424Z,100.00
2022-10-26T03:04:33.097Z,100.00
2022-10-26T03:07:01.392Z,100.00
2022-10-26T03:09:29.360Z,100.00
2022-10-26T03:11:57.037Z,100.00
2022-10-26T03:14:24.616Z,100.00
2022-10-26T03:19:24.729Z,100.00
2022-10-26T03:21:53.602Z,100.00
2022-10-26T03:24:21.140Z,100.00
2022-10-26T03:26:48.673Z,100.00
2022-10-26T03:29:16.167Z,100.00
2022-10-26T03:31:43.747Z,100.00
2022-10-26T03:34:11.272Z,100.00
2022-10-26T03:36:38.785Z,100.00
2022-10-26T03:39:07.698Z,100.00
2022-10-26T03:41:35.200Z,100.00
2022-10-26T03:44:02.778Z,100.00
2022-10-26T03:46:30.354Z,100.00
2022-10-26T03:48:57.885Z,100.00
2022-10-26T03:51:25.413Z,100.00
2022-10-26T03:53:52.946Z,100.00
2022-10-26T03:56:22.253Z,100.00
2022-10-26T03:58:49.780Z,100.00
2022-10-26T04:01:17.339Z,100.00
2022-10-26T04:03:44.926Z,100.00
2022-10-26T04:06:12.476Z,100.00
2022-10-26T04:08:39.973Z,100.00
2022-10-26T04:11:07.584Z,100.00
2022-10-26T04:13:36.494Z,100.00
2022-10-26T04:16:04.072Z,100.00
2022-10-26T04:18:31.593Z,100.00
2022-10-26T04:21:01.985Z,100.00
2022-10-26T04:23:29.533Z,100.00
2022-10-26T04:25:57.058Z,100.00
2022-10-26T04:28:24.591Z,100.00
2022-10-26T04:30:53.440Z,100.00
2022-10-26T04:33:20.966Z,100.00
2022-10-26T04:35:48.475Z,100.00
2022-10-26T04:38:15.997Z,100.00
2022-10-26T04:40:43.526Z,100.00
2022-10-26T04:43:11.789Z,100.00
2022-10-26T04:45:39.303Z,100.00
2022-10-26T04:48:11.060Z,100.00
2022-10-26T04:50:39.595Z,100.00
2022-10-26T04:53:08.008Z,100.00
2022-10-26T04:55:35.944Z,100.00
2022-10-26T04:58:03.514Z,100.00
2022-10-26T05:00:32.677Z,100.00
2022-10-26T05:03:00.800Z,100.00
2022-10-26T05:05:30.372Z,100.00
2022-10-26T05:07:58.448Z,100.00
2022-10-26T05:10:26.636Z,100.00
2022-10-26T05:12:54.985Z,100.00
2022-10-26T05:15:22.768Z,100.00
2022-10-26T05:17:56.384Z,100.00
2022-10-26T05:20:29.223Z,100.00
2022-10-26T05:22:58.618Z,100.00
2022-10-26T05:25:26.304Z,100.00
2022-10-26T05:27:57.848Z,100.00
2022-10-26T05:30:25.404Z,100.00
2022-10-26T05:32:55.502Z,100.00
2022-10-26T05:35:23.015Z,100.00
2022-10-26T05:37:51.036Z,100.00
2022-10-26T05:40:20.564Z,100.00
2022-10-26T05:42:48.539Z,100.00
2022-10-26T05:45:18.038Z,100.00
2022-10-26T05:47:46.594Z,100.00
2022-10-26T05:50:14.860Z,100.00
2022-10-26T05:52:43.236Z,100.00
2022-10-26T05:55:15.269Z,100.00
2022-10-26T05:57:45.276Z,100.00
2022-10-26T06:00:17.832Z,100.00
2022-10-26T06:02:58.661Z,100.00
2022-10-26T06:05:29.212Z,100.00
2022-10-26T06:07:57.389Z,100.00
2022-10-26T06:10:25.733Z,100.00
2022-10-26T06:12:55.368Z,100.00
2022-10-26T06:15:23.729Z,100.00
2022-10-26T06:18:01.697Z,100.00
2022-10-26T06:20:45.107Z,100.00
2022-10-26T06:23:31.350Z,100.00
2022-10-26T06:26:06.406Z,100.00
2022-10-26T06:28:47.363Z,100.00
2022-10-26T06:31:17.749Z,100.00
2022-10-26T06:33:45.860Z,100.00
2022-10-26T06:36:23.024Z,100.00
2022-10-26T06:38:55.170Z,100.00
2022-10-26T06:41:24.152Z,100.00
2022-10-26T06:43:53.949Z,100.00
2022-10-26T06:46:31.056Z,100.00
2022-10-26T06:49:06.591Z,100.00
2022-10-26T06:51:42.201Z,100.00
2022-10-26T06:54:19.753Z,100.00
2022-10-26T06:56:48.242Z,100.00
2022-10-26T06:59:22.588Z,100.00
2022-10-26T07:01:50.164Z,100.00
2022-10-26T07:04:17.821Z,100.00
2022-10-26T07:06:45.328Z,100.00
2022-10-26T07:09:12.838Z,100.00
2022-10-26T07:11:40.356Z,100.00
2022-10-26T07:14:08.452Z,100.00
2022-10-26T07:16:37.388Z,100.00
2022-10-26T07:19:04.891Z,100.00
2022-10-26T07:21:32.419Z,100.00
2022-10-26T07:23:59.959Z,100.00
2022-10-26T07:26:28.051Z,100.00
2022-10-26T07:28:55.790Z,100.00
2022-10-26T07:31:23.292Z,100.00
2022-10-26T07:33:54.651Z,100.00
2022-10-26T07:36:22.168Z,100.00
2022-10-26T07:38:52.679Z,100.00
2022-10-26T07:41:20.958Z,100.00
2022-10-26T07:43:50.666Z,100.00
2022-10-26T07:46:18.452Z,100.00
2022-10-26T07:48:46.074Z,100.00
2022-10-26T07:51:14.967Z,100.00
2022-10-26T07:53:42.553Z,100.00
2022-10-26T07:56:11.659Z,100.00
2022-10-26T07:58:39.648Z,100.00
2022-10-26T08:01:08.332Z,100.00
2022-10-26T08:03:36.035Z,100.00
2022-10-26T08:06:04.963Z,100.00
2022-10-26T08:08:34.157Z,100.00
2022-10-26T08:11:01.789Z,100.00
2022-10-26T08:13:29.340Z,100.00
2022-10-26T08:16:00.126Z,100.00
2022-10-26T08:18:28.116Z,100.00
2022-10-26T08:21:01.859Z,100.00
2022-10-26T08:23:39.379Z,100.00
2022-10-26T08:26:07.242Z,100.00
2022-10-26T08:28:34.857Z,100.00
2022-10-26T08:31:02.377Z,100.00
2022-10-26T08:33:29.923Z,100.00
2022-10-26T08:35:57.900Z,100.00
2022-10-26T08:38:25.635Z,100.00
2022-10-26T08:40:55.576Z,100.00
2022-10-26T08:43:29.296Z,100.00
2022-10-26T08:46:04.095Z,100.00
2022-10-26T08:48:35.401Z,100.00
2022-10-26T08:51:08.809Z,100.00
2022-10-26T08:53:42.898Z,100.00
2022-10-26T08:56:18.298Z,100.00
2022-10-26T08:58:52.475Z,100.00
2022-10-26T09:01:20.234Z,100.00
2022-10-26T09:03:47.838Z,100.00
2022-10-26T09:06:26.764Z,100.00
2022-10-26T09:09:03.877Z,100.00
2022-10-26T09:12:03.022Z,100.00
2022-10-26T09:14:40.619Z,100.00
2022-10-26T09:17:14.428Z,100.00
2022-10-26T09:20:01.213Z,100.00
2022-10-26T09:22:34.931Z,100.00
2022-10-26T09:25:13.685Z,100.00
2022-10-26T09:27:46.518Z,100.00
2022-10-26T09:30:16.471Z,100.00
2022-10-26T09:32:48.031Z,100.00
2022-10-26T09:35:19.921Z,100.00
2022-10-26T09:37:52.611Z,100.00
2022-10-26T09:40:26.874Z,100.00
2022-10-26T09:43:01.942Z,100.00
2022-10-26T09:45:32.498Z,100.00
2022-10-26T09:48:06.745Z,100.00
2022-10-26T09:50:37.039Z,100.00
2022-10-26T09:53:05.565Z,100.00
2022-10-26T09:55:35.564Z,100.00
2022-10-26T09:58:07.955Z,100.00
2022-10-26T10:03:20.671Z,100.00
2022-10-26T10:05:52.774Z,100.00
2022-10-26T10:08:23.072Z,100.00
2022-10-26T10:10:58.551Z,100.00
2022-10-26T10:13:30.083Z,100.00
2022-10-26T10:16:04.529Z,100.00
2022-10-26T10:18:32.946Z,100.00
2022-10-26T10:21:01.152Z,100.00
2022-10-26T10:23:32.259Z,100.00
2022-10-26T10:26:02.066Z,100.00
2022-10-26T10:28:31.433Z,100.00
2022-10-26T10:31:00.871Z,100.00
2022-10-26T10:33:40.399Z,100.00
2022-10-26T10:36:11.492Z,100.00
2022-10-26T10:38:42.235Z,100.00
2022-10-26T10:41:22.064Z,100.00
2022-10-26T10:43:54.015Z,98.83
2022-10-26T10:46:24.194Z,97.11
2022-10-26T10:48:56.888Z,93.98
2022-10-26T10:51:26.698Z,89.48
2022-10-26T10:53:56.714Z,88.85
2022-10-26T10:56:35.308Z,92.00
2022-10-26T10:59:25.339Z,94.06
2022-10-26T11:02:07.889Z,99.02
2022-10-26T11:04:50.097Z,97.89
2022-10-26T11:07:19.563Z,98.38
2022-10-26T11:09:49.753Z,99.71
2022-10-26T11:12:22.579Z,99.24
2022-10-26T11:14:55.723Z,100.00
2022-10-26T11:17:26.643Z,100.00
2022-10-26T11:19:59.801Z,100.00
2022-10-26T11:22:31.740Z,100.00
2022-10-26T11:25:04.572Z,100.00
2022-10-26T11:27:40.401Z,100.00
2022-10-26T11:30:16.106Z,100.00
2022-10-26T11:32:48.133Z,100.00
2022-10-26T11:35:19.664Z,100.00
2022-10-26T11:37:53.210Z,100.00
2022-10-26T11:40:29.629Z,100.00
2022-10-26T11:43:08.100Z,100.00
2022-10-26T11:45:40.709Z,100.00
2022-10-26T11:48:17.556Z,100.00
2022-10-26T11:50:48.459Z,100.00
2022-10-26T11:53:18.763Z,100.00
2022-10-26T11:55:51.209Z,100.00
2022-10-26T11:58:19.544Z,99.97
2022-10-26T12:00:54.345Z,97.94
2022-10-26T12:03:26.996Z,98.20
2022-10-26T12:05:54.624Z,100.00
2022-10-26T12:08:27.567Z,100.00
2022-10-26T12:11:04.637Z,100.00
2022-10-26T12:13:37.181Z,100.00
2022-10-26T12:16:14.559Z,100.00
2022-10-26T12:18:56.132Z,100.00
2022-10-26T12:21:28.377Z,100.00
2022-10-26T12:23:58.441Z,100.00
2022-10-26T12:26:51.968Z,100.00
2022-10-26T12:29:46.596Z,100.00
2022-10-26T12:32:51.075Z,100.00
2022-10-26T12:35:36.434Z,100.00
2022-10-26T12:38:50.737Z,100.00
2022-10-26T12:41:26.510Z,100.00
2022-10-26T12:44:24.355Z,100.00
2022-10-26T12:46:53.246Z,100.00
2022-10-26T12:50:00.247Z,100.00
2022-10-26T12:52:34.838Z,93.68
2022-10-26T12:55:39.159Z,90.96
2022-10-26T12:58:33.468Z,93.61
2022-10-26T13:01:34.591Z,90.94
2022-10-26T13:04:32.179Z,90.98
2022-10-26T13:07:17.651Z,97.79
2022-10-26T13:09:47.356Z,99.13
2022-10-26T13:12:15.225Z,98.82
2022-10-26T13:14:57.669Z,98.01
2022-10-26T13:17:27.443Z,95.46
2022-10-26T13:20:01.525Z,97.84
2022-10-26T13:22:30.044Z,96.77
2022-10-26T13:25:01.678Z,95.96
2022-10-26T13:27:43.076Z,91.38
2022-10-26T13:30:48.133Z,92.98
2022-10-26T13:33:25.339Z,96.19
2022-10-26T13:35:57.181Z,96.74
2022-10-26T13:38:30.799Z,100.00
2022-10-26T13:41:07.216Z,98.00
2022-10-26T13:43:35.313Z,98.95
2022-10-26T13:46:04.891Z,98.70
2022-10-26T13:48:39.657Z,94.99
2022-10-26T13:51:20.676Z,94.19
2022-10-26T13:53:52.551Z,98.96
2022-10-26T13:56:28.290Z,100.00
2022-10-26T13:59:01.234Z,100.00
2022-10-26T14:01:29.608Z,100.00
2022-10-26T14:03:58.308Z,100.00
2022-10-26T14:06:33.151Z,100.00
2022-10-26T14:09:04.274Z,100.00
2022-10-26T14:11:36.736Z,100.00
2022-10-26T14:14:05.435Z,100.00
2022-10-26T14:16:35.292Z,100.00
2022-10-26T14:19:02.850Z,100.00
2022-10-26T14:21:31.761Z,100.00
2022-10-26T14:24:04.126Z,100.00
2022-10-26T14:26:39.648Z,100.00
2022-10-26T14:29:16.581Z,100.00
2022-10-26T14:31:44.172Z,100.00
2022-10-26T14:34:13.523Z,100.00
2022-10-26T14:36:46.508Z,100.00
2022-10-26T14:39:24.830Z,100.00
2022-10-26T14:41:55.186Z,100.00
2022-10-26T14:44:25.131Z,100.00
2022-10-26T14:46:54.377Z,100.00
2022-10-26T14:49:24.149Z,100.00
2022-10-26T14:51:58.319Z,100.00
2022-10-26T14:54:27.847Z,100.00
2022-10-26T14:56:55.794Z,100.00
2022-10-26T14:59:26.564Z,100.00
2022-10-26T15:01:55.928Z,100.00
2022-10-26T15:04:31.217Z,100.00
2022-10-26T15:07:18.888Z,100.00
2022-10-26T15:09:47.701Z,100.00
2022-10-26T15:12:26.494Z,100.00
2022-10-26T15:14:54.676Z,100.00
2022-10-26T15:17:27.505Z,100.00
2022-10-26T15:19:56.532Z,100.00
2022-10-26T15:22:32.078Z,100.00
2022-10-26T15:25:03.278Z,100.00
2022-10-26T15:27:31.424Z,100.00
2022-10-26T15:30:19.145Z,100.00
2022-10-26T15:32:47.498Z,100.00
2022-10-26T15:35:31.235Z,100.00
2022-10-26T15:38:00.950Z,100.00
2022-10-26T15:40:30.790Z,100.00
2022-10-26T15:43:01.310Z,100.00
2022-10-26T15:45:32.873Z,100.00
2022-10-26T15:48:16.783Z,100.00
2022-10-26T15:50:44.305Z,100.00
2022-10-26T15:53:19.575Z,100.00
2022-10-26T15:55:47.416Z,100.00
2022-10-26T15:58:15.745Z,100.00
2022-10-26T16:00:43.619Z,100.00
2022-10-26T16:03:15.491Z,100.00
2022-10-26T16:05:43.033Z,100.00
2022-10-26T16:08:17.964Z,100.00
2022-10-26T16:10:46.903Z,100.00
2022-10-26T16:13:15.234Z,100.00
2022-10-26T16:15:43.309Z,100.00
2022-10-26T16:18:10.831Z,100.00
2022-10-26T16:20:38.481Z,100.00
2022-10-26T16:23:06.650Z,100.00
2022-10-26T16:25:41.066Z,100.00
2022-10-26T16:28:10.399Z,100.00
2022-10-26T16:30:37.991Z,100.00
2022-10-26T16:33:05.553Z,100.00
2022-10-26T16:35:33.112Z,100.00
2022-10-26T16:38:00.610Z,100.00
2022-10-26T16:40:28.163Z,100.00
2022-10-26T16:42:57.011Z,100.00
2022-10-26T16:45:24.528Z,100.00
2022-10-26T16:47:52.282Z,100.00
2022-10-26T16:50:22.050Z,100.00
2022-10-26T16:52:49.563Z,100.00
2022-10-26T16:55:17.248Z,100.00
2022-10-26T16:57:44.754Z,100.00
2022-10-26T17:00:14.276Z,100.00
2022-10-26T17:02:41.864Z,100.00
2022-10-26T17:05:09.718Z,100.00
2022-10-26T17:07:37.234Z,100.00
2022-10-26T17:10:05.463Z,100.00
2022-10-26T17:12:33.299Z,100.00
2022-10-26T17:15:01.462Z,100.00
2022-10-26T17:17:30.402Z,100.00
2022-10-26T17:19:58.339Z,100.00
2022-10-26T17:22:25.866Z,100.00
2022-10-26T17:24:53.378Z,100.00
2022-10-26T17:27:21.180Z,100.00
2022-10-26T17:29:48.674Z,100.00
2022-10-26T17:32:17.225Z,100.00
2022-10-26T17:34:46.059Z,100.00
2022-10-26T17:37:13.588Z,100.00
2022-10-26T17:39:41.078Z,100.00
2022-10-26T17:42:08.639Z,100.00
2022-10-26T17:44:38.906Z,100.00
2022-10-26T17:47:06.529Z,100.00
2022-10-26T17:49:36.174Z,100.00
2022-10-26T17:52:06.545Z,100.00
2022-10-26T17:54:34.058Z,100.00
2022-10-26T17:57:01.948Z,100.00
2022-10-26T17:59:29.593Z,100.00
2022-10-26T18:01:57.212Z,100.00
2022-10-26T18:04:24.913Z,100.00
2022-10-26T18:06:52.469Z,100.00
2022-10-26T18:09:21.315Z,100.00
2022-10-26T18:11:50.808Z,100.00
2022-10-26T18:14:21.161Z,100.00
2022-10-26T18:16:48.709Z,100.00
2022-10-26T18:19:16.224Z,100.00
2022-10-26T18:21:43.723Z,100.00
2022-10-26T18:24:12.016Z,100.00
2022-10-26T18:26:40.952Z,100.00
2022-10-26T18:29:08.481Z,100.00
2022-10-26T18:31:35.985Z,100.00
2022-10-26T18:34:05.424Z,100.00
2022-10-26T18:36:33.475Z,100.00
2022-10-26T18:39:01.317Z,100.00
2022-10-26T18:41:29.345Z,100.00
2022-10-26T18:43:59.796Z,100.00
2022-10-26T18:46:29.411Z,100.00
2022-10-26T18:48:58.113Z,100.00
2022-10-26T18:51:28.897Z,100.00
2022-10-26T18:53:57.933Z,100.00
2022-10-26T18:56:25.856Z,100.00
2022-10-26T18:58:56.030Z,100.00
2022-10-26T19:01:27.003Z,100.00
2022-10-26T19:03:55.874Z,100.00
2022-10-26T19:06:25.036Z,100.00
2022-10-26T19:08:53.339Z,100.00
2022-10-26T19:11:23.244Z,100.00
2022-10-26T19:13:52.720Z,100.00
2022-10-26T19:16:40.703Z,100.00
2022-10-26T19:19:10.855Z,100.00
2022-10-26T19:21:38.702Z,100.00
2022-10-26T19:24:12.867Z,100.00
2022-10-26T19:26:43.482Z,100.00
2022-10-26T19:29:14.673Z,100.00
2022-10-26T19:31:43.097Z,100.00
2022-10-26T19:34:13.287Z,100.00
2022-10-26T19:36:44.083Z,100.00
2022-10-26T19:39:12.559Z,100.00
2022-10-26T19:41:40.066Z,100.00
2022-10-26T19:44:07.890Z,100.00
2022-10-26T19:46:35.557Z,100.00
2022-10-26T19:49:03.382Z,100.00
2022-10-26T19:51:33.159Z,100.00
2022-10-26T19:54:03.750Z,100.00
2022-10-26T19:56:32.181Z,100.00
2022-10-26T19:58:59.772Z,100.00
2022-10-26T20:01:27.626Z,100.00
2022-10-26T20:03:55.478Z,100.00
2022-10-26T20:06:23.001Z,100.00
2022-10-26T20:08:51.908Z,100.00
2022-10-26T20:11:19.830Z,100.00
2022-10-26T20:13:48.516Z,100.00
2022-10-26T20:16:17.476Z,100.00
2022-10-26T20:18:47.892Z,100.00
2022-10-26T20:21:17.075Z,100.00
2022-10-26T20:23:45.299Z,100.00
2022-10-26T20:26:18.432Z,100.00
2022-10-26T20:28:48.090Z,100.00
2022-10-26T20:31:15.837Z,100.00
2022-10-26T20:33:43.541Z,100.00
2022-10-26T20:36:11.151Z,100.00
2022-10-26T20:38:40.235Z,100.00
2022-10-26T20:41:11.654Z,100.00
2022-10-26T20:43:41.859Z,100.00
2022-10-26T20:46:11.667Z,100.00
2022-10-26T20:48:39.741Z,100.00
2022-10-26T20:51:25.286Z,100.00
2022-10-26T20:54:04.520Z,100.00
2022-10-26T20:56:34.270Z,100.00
2022-10-26T20:59:04.867Z,100.00
2022-10-26T21:01:33.847Z,100.00
2022-10-26T21:04:03.077Z,100.00
2022-10-26T21:06:32.135Z,100.00
2022-10-26T21:08:59.632Z,100.00
2022-10-26T21:11:27.179Z,100.00
2022-10-26T21:13:55.367Z,100.00
2022-10-26T21:16:24.301Z,100.00
2022-10-26T21:18:51.812Z,100.00
2022-10-26T21:21:19.365Z,100.00
2022-10-26T21:23:46.880Z,100.00
2022-10-26T21:26:14.445Z,100.00
2022-10-26T21:28:45.643Z,100.00
2022-10-26T21:31:15.185Z,100.00
2022-10-26T21:33:44.885Z,100.00
2022-10-26T21:36:13.376Z,100.00
2022-10-26T21:38:42.122Z,100.00
2022-10-26T21:41:11.546Z,100.00
2022-10-26T21:43:40.383Z,100.00
2022-10-26T21:46:09.492Z,100.00
2022-10-26T21:48:37.649Z,100.00
2022-10-26T21:51:08.498Z,100.00
2022-10-26T21:53:36.058Z,100.00
2022-10-26T21:56:05.995Z,100.00
2022-10-26T21:58:33.664Z,100.00
2022-10-26T22:01:08.415Z,100.00
2022-10-26T22:03:36.585Z,100.00
2022-10-26T22:06:06.355Z,100.00
2022-10-26T22:08:34.330Z,100.00
2022-10-26T22:11:06.467Z,100.00
2022-10-26T22:13:34.378Z,100.00
2022-10-26T22:16:04.301Z,100.00
2022-10-26T22:18:34.494Z,100.00
2022-10-26T22:21:02.231Z,100.00
2022-10-26T22:23:33.775Z,100.00
2022-10-26T22:26:04.811Z,100.00
2022-10-26T22:28:36.264Z,100.00
2022-10-26T22:31:05.952Z,100.00
2022-10-26T22:33:33.950Z,100.00
2022-10-26T22:36:05.171Z,100.00
2022-10-26T22:38:34.236Z,100.00
2022-10-26T22:41:01.792Z,100.00
2022-10-26T22:43:29.700Z,100.00
2022-10-26T22:46:01.499Z,100.00
2022-10-26T22:48:29.251Z,100.00
2022-10-26T22:50:57.113Z,100.00
2022-10-26T22:53:25.252Z,100.00
2022-10-26T22:55:54.092Z,100.00
2022-10-26T22:58:21.675Z,100.00
2022-10-26T23:00:49.325Z,100.00
2022-10-26T23:03:16.848Z,100.00
2022-10-26T23:05:48.005Z,100.00
2022-10-26T23:08:15.548Z,100.00
2022-10-26T23:10:43.078Z,100.00
2022-10-26T23:13:11.929Z,100.00
2022-10-26T23:15:39.487Z,100.00
2022-10-26T23:18:07.054Z,100.00
2022-10-26T23:20:34.655Z,100.00
2022-10-26T23:23:02.969Z,100.00
2022-10-26T23:25:30.474Z,100.00
2022-10-26T23:27:57.994Z,100.00
2022-10-26T23:30:26.884Z,100.00
2022-10-26T23:32:56.404Z,100.00
2022-10-26T23:35:24.069Z,100.00
2022-10-26T23:37:51.573Z,100.00
2022-10-26T23:40:19.119Z,100.00
2022-10-26T23:42:46.667Z,100.00
2022-10-26T23:45:14.343Z,100.00
2022-10-26T23:47:43.219Z,100.00
2022-10-26T23:50:11.185Z,100.00
2022-10-26T23:52:38.694Z,100.00
2022-10-26T23:55:06.957Z,100.00
2022-10-26T23:57:34.469Z,100.00
